sensor_id;sensor_type;location;lat;lon;timestamp;P1;durP1;ratioP1;P2;durP2;ratioP2
38240;SDS011;24037;49.536;8.500;2022-12-13T00:00:54;33.80;;;15.02;;
38240;SDS011;24037;49.536;8.500;2022-12-13T00:03:20;28.20;;;12.65;;
38240;SDS011;24037;49.536;8.500;2022-12-13T00:05:47;27.35;;;12.65;;
38240;SDS011;24037;49.536;8.500;2022-12-13T00:08:13;27.48;;;13.13;;
38240;SDS011;24037;49.536;8.500;2022-12-13T00:10:39;28.17;;;12.50;;
38240;SDS011;24037;49.536;8.500;2022-12-13T00:13:05;30.05;;;13.18;;
38240;SDS011;24037;49.536;8.500;2022-12-13T00:15:31;27.85;;;13.35;;
38240;SDS011;24037;49.536;8.500;2022-12-13T00:17:57;24.20;;;11.95;;
38240;SDS011;24037;49.536;8.500;2022-12-13T00:20:23;31.10;;;13.05;;
38240;SDS011;24037;49.536;8.500;2022-12-13T00:22:53;29.83;;;13.93;;
38240;SDS011;24037;49.536;8.500;2022-12-13T00:25:19;24.83;;;11.75;;
38240;SDS011;24037;49.536;8.500;2022-12-13T00:27:45;25.25;;;12.65;;
38240;SDS011;24037;49.536;8.500;2022-12-13T00:30:12;28.52;;;14.43;;
38240;SDS011;24037;49.536;8.500;2022-12-13T00:32:38;31.23;;;11.77;;
38240;SDS011;24037;49.536;8.500;2022-12-13T00:35:04;26.38;;;12.70;;
38240;SDS011;24037;49.536;8.500;2022-12-13T00:37:31;26.92;;;13.60;;
38240;SDS011;24037;49.536;8.500;2022-12-13T00:39:57;28.40;;;12.13;;
38240;SDS011;24037;49.536;8.500;2022-12-13T00:42:23;32.25;;;13.82;;
38240;SDS011;24037;49.536;8.500;2022-12-13T00:44:49;28.75;;;12.55;;
38240;SDS011;24037;49.536;8.500;2022-12-13T00:47:15;29.50;;;13.02;;
38240;SDS011;24037;49.536;8.500;2022-12-13T00:49:43;32.20;;;12.82;;
38240;SDS011;24037;49.536;8.500;2022-12-13T00:52:09;36.10;;;14.95;;
38240;SDS011;24037;49.536;8.500;2022-12-13T00:54:35;32.63;;;13.90;;
38240;SDS011;24037;49.536;8.500;2022-12-13T00:57:02;28.35;;;13.55;;
38240;SDS011;24037;49.536;8.500;2022-12-13T00:59:28;29.60;;;12.95;;
38240;SDS011;24037;49.536;8.500;2022-12-13T01:01:54;32.28;;;14.38;;
38240;SDS011;24037;49.536;8.500;2022-12-13T01:04:20;31.67;;;13.20;;
38240;SDS011;24037;49.536;8.500;2022-12-13T01:06:46;30.55;;;12.82;;
38240;SDS011;24037;49.536;8.500;2022-12-13T01:09:20;29.95;;;14.48;;
38240;SDS011;24037;49.536;8.500;2022-12-13T01:11:48;32.63;;;14.40;;
38240;SDS011;24037;49.536;8.500;2022-12-13T01:14:15;29.10;;;12.80;;
38240;SDS011;24037;49.536;8.500;2022-12-13T01:16:42;36.80;;;13.55;;
38240;SDS011;24037;49.536;8.500;2022-12-13T01:19:08;29.70;;;13.02;;
38240;SDS011;24037;49.536;8.500;2022-12-13T01:21:35;27.65;;;12.75;;
38240;SDS011;24037;49.536;8.500;2022-12-13T01:24:04;28.63;;;11.98;;
38240;SDS011;24037;49.536;8.500;2022-12-13T01:26:31;22.42;;;10.85;;
38240;SDS011;24037;49.536;8.500;2022-12-13T01:28:58;28.88;;;13.02;;
38240;SDS011;24037;49.536;8.500;2022-12-13T01:31:24;34.90;;;14.82;;
38240;SDS011;24037;49.536;8.500;2022-12-13T01:33:51;34.85;;;13.65;;
38240;SDS011;24037;49.536;8.500;2022-12-13T01:36:19;30.80;;;13.55;;
38240;SDS011;24037;49.536;8.500;2022-12-13T01:38:46;31.77;;;14.68;;
38240;SDS011;24037;49.536;8.500;2022-12-13T01:41:16;27.30;;;12.02;;
38240;SDS011;24037;49.536;8.500;2022-12-13T01:43:51;27.80;;;13.00;;
38240;SDS011;24037;49.536;8.500;2022-12-13T01:46:19;34.33;;;14.38;;
38240;SDS011;24037;49.536;8.500;2022-12-13T01:48:59;27.60;;;11.13;;
38240;SDS011;24037;49.536;8.500;2022-12-13T01:54:28;26.20;;;10.68;;
38240;SDS011;24037;49.536;8.500;2022-12-13T01:59:26;23.48;;;10.18;;
38240;SDS011;24037;49.536;8.500;2022-12-13T02:01:53;27.45;;;10.98;;
38240;SDS011;24037;49.536;8.500;2022-12-13T02:04:21;28.88;;;12.77;;
38240;SDS011;24037;49.536;8.500;2022-12-13T02:06:56;21.75;;;10.95;;
38240;SDS011;24037;49.536;8.500;2022-12-13T02:09:22;29.27;;;12.60;;
38240;SDS011;24037;49.536;8.500;2022-12-13T02:11:50;30.50;;;13.93;;
38240;SDS011;24037;49.536;8.500;2022-12-13T02:14:17;32.67;;;13.00;;
38240;SDS011;24037;49.536;8.500;2022-12-13T02:16:53;32.67;;;14.43;;
38240;SDS011;24037;49.536;8.500;2022-12-13T02:25:28;26.15;;;10.57;;
38240;SDS011;24037;49.536;8.500;2022-12-13T02:28:27;24.25;;;12.63;;
38240;SDS011;24037;49.536;8.500;2022-12-13T02:36:53;32.08;;;12.02;;
38240;SDS011;24037;49.536;8.500;2022-12-13T02:39:29;28.27;;;11.57;;
38240;SDS011;24037;49.536;8.500;2022-12-13T02:42:04;26.30;;;10.23;;
38240;SDS011;24037;49.536;8.500;2022-12-13T02:44:39;32.78;;;14.38;;
38240;SDS011;24037;49.536;8.500;2022-12-13T02:47:19;32.42;;;11.82;;
38240;SDS011;24037;49.536;8.500;2022-12-13T02:49:49;27.77;;;11.55;;
38240;SDS011;24037;49.536;8.500;2022-12-13T02:52:24;36.13;;;13.90;;
38240;SDS011;24037;49.536;8.500;2022-12-13T02:54:52;33.13;;;12.40;;
38240;SDS011;24037;49.536;8.500;2022-12-13T02:57:35;34.75;;;14.93;;
38240;SDS011;24037;49.536;8.500;2022-12-13T03:00:07;26.67;;;13.20;;
38240;SDS011;24037;49.536;8.500;2022-12-13T03:02:44;25.50;;;11.50;;
38240;SDS011;24037;49.536;8.500;2022-12-13T03:09:09;27.02;;;11.95;;
38240;SDS011;24037;49.536;8.500;2022-12-13T03:12:04;25.63;;;11.13;;
38240;SDS011;24037;49.536;8.500;2022-12-13T03:14:57;27.63;;;12.35;;
38240;SDS011;24037;49.536;8.500;2022-12-13T03:17:46;31.83;;;13.55;;
38240;SDS011;24037;49.536;8.500;2022-12-13T03:20:26;28.92;;;12.35;;
38240;SDS011;24037;49.536;8.500;2022-12-13T03:22:54;27.42;;;12.32;;
38240;SDS011;24037;49.536;8.500;2022-12-13T03:25:22;29.65;;;13.45;;
38240;SDS011;24037;49.536;8.500;2022-12-13T03:27:52;36.08;;;15.38;;
38240;SDS011;24037;49.536;8.500;2022-12-13T03:30:18;33.05;;;13.32;;
38240;SDS011;24037;49.536;8.500;2022-12-13T03:32:44;30.33;;;12.40;;
38240;SDS011;24037;49.536;8.500;2022-12-13T03:35:10;29.55;;;12.77;;
38240;SDS011;24037;49.536;8.500;2022-12-13T03:37:36;25.13;;;13.13;;
38240;SDS011;24037;49.536;8.500;2022-12-13T03:40:03;31.13;;;11.30;;
38240;SDS011;24037;49.536;8.500;2022-12-13T03:42:29;31.17;;;11.70;;
38240;SDS011;24037;49.536;8.500;2022-12-13T03:44:56;26.63;;;11.90;;
38240;SDS011;24037;49.536;8.500;2022-12-13T03:47:22;27.60;;;13.57;;
38240;SDS011;24037;49.536;8.500;2022-12-13T03:49:48;27.48;;;11.85;;
38240;SDS011;24037;49.536;8.500;2022-12-13T03:52:14;27.45;;;11.50;;
38240;SDS011;24037;49.536;8.500;2022-12-13T03:54:40;28.10;;;11.38;;
38240;SDS011;24037;49.536;8.500;2022-12-13T03:57:07;26.73;;;11.98;;
38240;SDS011;24037;49.536;8.500;2022-12-13T03:59:33;28.77;;;13.13;;
38240;SDS011;24037;49.536;8.500;2022-12-13T04:01:59;25.15;;;11.30;;
38240;SDS011;24037;49.536;8.500;2022-12-13T04:04:25;23.55;;;13.18;;
38240;SDS011;24037;49.536;8.500;2022-12-13T04:06:51;28.45;;;14.07;;
38240;SDS011;24037;49.536;8.500;2022-12-13T04:09:17;32.78;;;12.80;;
38240;SDS011;24037;49.536;8.500;2022-12-13T04:11:43;32.88;;;12.45;;
38240;SDS011;24037;49.536;8.500;2022-12-13T04:14:28;29.92;;;12.68;;
38240;SDS011;24037;49.536;8.500;2022-12-13T04:16:54;20.25;;;10.25;;
38240;SDS011;24037;49.536;8.500;2022-12-13T04:19:20;31.20;;;13.55;;
38240;SDS011;24037;49.536;8.500;2022-12-13T04:21:46;24.83;;;11.27;;
38240;SDS011;24037;49.536;8.500;2022-12-13T04:24:13;22.30;;;10.63;;
38240;SDS011;24037;49.536;8.500;2022-12-13T04:26:39;24.90;;;12.07;;
38240;SDS011;24037;49.536;8.500;2022-12-13T04:29:05;25.50;;;11.63;;
38240;SDS011;24037;49.536;8.500;2022-12-13T04:31:31;31.65;;;12.07;;
38240;SDS011;24037;49.536;8.500;2022-12-13T04:33:57;32.30;;;13.85;;
38240;SDS011;24037;49.536;8.500;2022-12-13T04:36:23;30.23;;;12.85;;
38240;SDS011;24037;49.536;8.500;2022-12-13T04:38:49;32.13;;;13.77;;
38240;SDS011;24037;49.536;8.500;2022-12-13T04:41:16;28.35;;;11.88;;
38240;SDS011;24037;49.536;8.500;2022-12-13T04:43:45;25.35;;;11.43;;
38240;SDS011;24037;49.536;8.500;2022-12-13T04:46:19;28.25;;;14.10;;
38240;SDS011;24037;49.536;8.500;2022-12-13T04:48:46;26.15;;;11.80;;
38240;SDS011;24037;49.536;8.500;2022-12-13T04:51:13;26.00;;;12.43;;
38240;SDS011;24037;49.536;8.500;2022-12-13T04:53:40;30.58;;;11.60;;
38240;SDS011;24037;49.536;8.500;2022-12-13T04:56:06;33.25;;;13.40;;
38240;SDS011;24037;49.536;8.500;2022-12-13T04:58:33;29.17;;;12.65;;
38240;SDS011;24037;49.536;8.500;2022-12-13T05:00:59;32.13;;;13.18;;
38240;SDS011;24037;49.536;8.500;2022-12-13T05:03:25;30.77;;;11.57;;
38240;SDS011;24037;49.536;8.500;2022-12-13T05:05:52;31.80;;;13.80;;
38240;SDS011;24037;49.536;8.500;2022-12-13T05:08:18;29.45;;;11.65;;
38240;SDS011;24037;49.536;8.500;2022-12-13T05:10:44;23.55;;;11.13;;
38240;SDS011;24037;49.536;8.500;2022-12-13T05:13:11;30.20;;;12.95;;
38240;SDS011;24037;49.536;8.500;2022-12-13T05:15:37;30.17;;;14.35;;
38240;SDS011;24037;49.536;8.500;2022-12-13T05:18:04;25.02;;;10.90;;
38240;SDS011;24037;49.536;8.500;2022-12-13T05:20:33;25.00;;;11.30;;
38240;SDS011;24037;49.536;8.500;2022-12-13T05:23:00;29.98;;;11.68;;
38240;SDS011;24037;49.536;8.500;2022-12-13T05:25:26;34.50;;;13.23;;
38240;SDS011;24037;49.536;8.500;2022-12-13T05:27:52;27.77;;;11.18;;
38240;SDS011;24037;49.536;8.500;2022-12-13T05:30:20;31.33;;;12.20;;
38240;SDS011;24037;49.536;8.500;2022-12-13T05:32:46;32.83;;;13.10;;
38240;SDS011;24037;49.536;8.500;2022-12-13T05:35:13;26.33;;;12.43;;
38240;SDS011;24037;49.536;8.500;2022-12-13T05:37:40;21.95;;;10.88;;
38240;SDS011;24037;49.536;8.500;2022-12-13T05:40:06;26.98;;;10.60;;
38240;SDS011;24037;49.536;8.500;2022-12-13T05:42:35;33.80;;;12.85;;
38240;SDS011;24037;49.536;8.500;2022-12-13T05:45:05;22.65;;;10.93;;
38240;SDS011;24037;49.536;8.500;2022-12-13T05:47:32;33.38;;;13.80;;
38240;SDS011;24037;49.536;8.500;2022-12-13T05:49:58;25.65;;;12.73;;
38240;SDS011;24037;49.536;8.500;2022-12-13T05:52:24;31.25;;;13.18;;
38240;SDS011;24037;49.536;8.500;2022-12-13T05:54:54;32.00;;;13.32;;
38240;SDS011;24037;49.536;8.500;2022-12-13T05:57:21;45.70;;;16.40;;
38240;SDS011;24037;49.536;8.500;2022-12-13T05:59:48;32.40;;;12.65;;
38240;SDS011;24037;49.536;8.500;2022-12-13T06:02:14;38.75;;;16.25;;
38240;SDS011;24037;49.536;8.500;2022-12-13T06:04:42;33.10;;;15.10;;
38240;SDS011;24037;49.536;8.500;2022-12-13T06:07:09;31.73;;;16.27;;
38240;SDS011;24037;49.536;8.500;2022-12-13T06:09:36;36.63;;;14.00;;
38240;SDS011;24037;49.536;8.500;2022-12-13T06:12:02;39.05;;;15.30;;
38240;SDS011;24037;49.536;8.500;2022-12-13T06:14:28;37.70;;;17.38;;
38240;SDS011;24037;49.536;8.500;2022-12-13T06:16:55;31.20;;;16.30;;
38240;SDS011;24037;49.536;8.500;2022-12-13T06:19:21;40.60;;;15.77;;
38240;SDS011;24037;49.536;8.500;2022-12-13T06:21:52;35.83;;;16.38;;
38240;SDS011;24037;49.536;8.500;2022-12-13T06:24:20;35.70;;;15.32;;
38240;SDS011;24037;49.536;8.500;2022-12-13T06:26:50;41.00;;;16.33;;
38240;SDS011;24037;49.536;8.500;2022-12-13T06:29:17;35.03;;;16.60;;
38240;SDS011;24037;49.536;8.500;2022-12-13T06:31:46;45.42;;;18.92;;
38240;SDS011;24037;49.536;8.500;2022-12-13T06:34:12;43.03;;;16.73;;
38240;SDS011;24037;49.536;8.500;2022-12-13T06:36:38;40.15;;;17.77;;
38240;SDS011;24037;49.536;8.500;2022-12-13T06:39:05;41.63;;;16.80;;
38240;SDS011;24037;49.536;8.500;2022-12-13T06:41:32;38.28;;;17.98;;
38240;SDS011;24037;49.536;8.500;2022-12-13T06:43:58;34.83;;;16.08;;
38240;SDS011;24037;49.536;8.500;2022-12-13T06:46:25;37.97;;;16.60;;
38240;SDS011;24037;49.536;8.500;2022-12-13T06:48:56;44.33;;;20.25;;
38240;SDS011;24037;49.536;8.500;2022-12-13T06:51:22;43.15;;;19.95;;
38240;SDS011;24037;49.536;8.500;2022-12-13T06:53:48;48.30;;;21.63;;
38240;SDS011;24037;49.536;8.500;2022-12-13T06:56:14;44.22;;;19.65;;
38240;SDS011;24037;49.536;8.500;2022-12-13T06:58:41;39.75;;;19.58;;
38240;SDS011;24037;49.536;8.500;2022-12-13T07:01:08;43.85;;;18.60;;
38240;SDS011;24037;49.536;8.500;2022-12-13T07:03:39;47.95;;;21.75;;
38240;SDS011;24037;49.536;8.500;2022-12-13T07:06:06;38.17;;;17.00;;
38240;SDS011;24037;49.536;8.500;2022-12-13T07:08:36;36.77;;;17.87;;
38240;SDS011;24037;49.536;8.500;2022-12-13T07:11:02;40.00;;;18.27;;
38240;SDS011;24037;49.536;8.500;2022-12-13T07:13:28;41.83;;;18.02;;
38240;SDS011;24037;49.536;8.500;2022-12-13T07:15:55;42.17;;;18.55;;
38240;SDS011;24037;49.536;8.500;2022-12-13T07:18:21;40.55;;;17.10;;
38240;SDS011;24037;49.536;8.500;2022-12-13T07:20:47;36.72;;;17.63;;
38240;SDS011;24037;49.536;8.500;2022-12-13T07:23:14;43.70;;;19.15;;
38240;SDS011;24037;49.536;8.500;2022-12-13T07:25:49;44.42;;;19.27;;
38240;SDS011;24037;49.536;8.500;2022-12-13T07:28:18;33.75;;;17.23;;
38240;SDS011;24037;49.536;8.500;2022-12-13T07:30:45;37.95;;;17.15;;
38240;SDS011;24037;49.536;8.500;2022-12-13T07:33:12;36.45;;;16.17;;
38240;SDS011;24037;49.536;8.500;2022-12-13T07:35:39;40.00;;;17.70;;
38240;SDS011;24037;49.536;8.500;2022-12-13T07:38:06;34.95;;;16.92;;
38240;SDS011;24037;49.536;8.500;2022-12-13T07:40:33;40.22;;;16.83;;
38240;SDS011;24037;49.536;8.500;2022-12-13T07:43:01;32.58;;;17.52;;
38240;SDS011;24037;49.536;8.500;2022-12-13T07:45:27;43.58;;;16.60;;
38240;SDS011;24037;49.536;8.500;2022-12-13T07:47:53;33.88;;;18.33;;
38240;SDS011;24037;49.536;8.500;2022-12-13T07:50:19;43.63;;;18.65;;
38240;SDS011;24037;49.536;8.500;2022-12-13T07:52:46;32.30;;;15.40;;
38240;SDS011;24037;49.536;8.500;2022-12-13T07:55:13;36.05;;;17.80;;
38240;SDS011;24037;49.536;8.500;2022-12-13T07:57:40;46.50;;;20.67;;
38240;SDS011;24037;49.536;8.500;2022-12-13T08:00:06;43.50;;;18.85;;
38240;SDS011;24037;49.536;8.500;2022-12-13T08:02:38;39.55;;;18.42;;
38240;SDS011;24037;49.536;8.500;2022-12-13T08:05:05;38.15;;;18.63;;
38240;SDS011;24037;49.536;8.500;2022-12-13T08:07:32;37.08;;;17.25;;
38240;SDS011;24037;49.536;8.500;2022-12-13T08:09:58;35.42;;;17.85;;
38240;SDS011;24037;49.536;8.500;2022-12-13T08:12:24;37.42;;;18.48;;
38240;SDS011;24037;49.536;8.500;2022-12-13T08:14:51;42.90;;;19.50;;
38240;SDS011;24037;49.536;8.500;2022-12-13T08:17:17;44.70;;;19.73;;
38240;SDS011;24037;49.536;8.500;2022-12-13T08:19:43;40.72;;;18.73;;
38240;SDS011;24037;49.536;8.500;2022-12-13T08:22:12;38.22;;;16.80;;
38240;SDS011;24037;49.536;8.500;2022-12-13T08:24:39;39.80;;;17.00;;
38240;SDS011;24037;49.536;8.500;2022-12-13T08:27:05;42.28;;;18.17;;
38240;SDS011;24037;49.536;8.500;2022-12-13T08:29:32;40.63;;;21.30;;
38240;SDS011;24037;49.536;8.500;2022-12-13T08:32:04;32.80;;;17.98;;
38240;SDS011;24037;49.536;8.500;2022-12-13T08:34:33;40.05;;;18.95;;
38240;SDS011;24037;49.536;8.500;2022-12-13T08:36:59;40.40;;;18.83;;
38240;SDS011;24037;49.536;8.500;2022-12-13T08:39:25;38.42;;;18.67;;
38240;SDS011;24037;49.536;8.500;2022-12-13T08:41:51;35.17;;;14.90;;
38240;SDS011;24037;49.536;8.500;2022-12-13T08:44:17;41.20;;;18.05;;
38240;SDS011;24037;49.536;8.500;2022-12-13T08:46:44;43.53;;;20.17;;
38240;SDS011;24037;49.536;8.500;2022-12-13T08:49:10;39.50;;;17.70;;
38240;SDS011;24037;49.536;8.500;2022-12-13T08:51:36;39.85;;;21.65;;
38240;SDS011;24037;49.536;8.500;2022-12-13T08:54:02;41.88;;;19.65;;
38240;SDS011;24037;49.536;8.500;2022-12-13T08:56:29;33.35;;;17.75;;
38240;SDS011;24037;49.536;8.500;2022-12-13T08:58:55;38.22;;;19.17;;
38240;SDS011;24037;49.536;8.500;2022-12-13T09:01:21;41.40;;;18.42;;
38240;SDS011;24037;49.536;8.500;2022-12-13T09:03:48;36.60;;;18.92;;
38240;SDS011;24037;49.536;8.500;2022-12-13T09:06:14;40.28;;;18.73;;
38240;SDS011;24037;49.536;8.500;2022-12-13T09:08:42;35.25;;;17.23;;
38240;SDS011;24037;49.536;8.500;2022-12-13T09:11:09;39.05;;;18.42;;
38240;SDS011;24037;49.536;8.500;2022-12-13T09:13:36;37.15;;;18.15;;
38240;SDS011;24037;49.536;8.500;2022-12-13T09:16:04;37.53;;;18.00;;
38240;SDS011;24037;49.536;8.500;2022-12-13T09:18:31;37.83;;;17.58;;
38240;SDS011;24037;49.536;8.500;2022-12-13T09:20:57;33.63;;;18.30;;
38240;SDS011;24037;49.536;8.500;2022-12-13T09:23:23;33.53;;;18.83;;
38240;SDS011;24037;49.536;8.500;2022-12-13T09:25:56;36.20;;;18.88;;
38240;SDS011;24037;49.536;8.500;2022-12-13T09:28:25;38.17;;;19.23;;
38240;SDS011;24037;49.536;8.500;2022-12-13T09:30:52;41.03;;;19.75;;
38240;SDS011;24037;49.536;8.500;2022-12-13T09:33:18;43.60;;;18.80;;
38240;SDS011;24037;49.536;8.500;2022-12-13T09:35:44;43.58;;;21.67;;
38240;SDS011;24037;49.536;8.500;2022-12-13T09:38:11;39.97;;;19.95;;
38240;SDS011;24037;49.536;8.500;2022-12-13T09:40:38;39.47;;;17.73;;
38240;SDS011;24037;49.536;8.500;2022-12-13T09:43:05;36.85;;;17.33;;
38240;SDS011;24037;49.536;8.500;2022-12-13T09:45:32;35.88;;;18.40;;
38240;SDS011;24037;49.536;8.500;2022-12-13T09:48:00;43.38;;;21.08;;
38240;SDS011;24037;49.536;8.500;2022-12-13T09:50:31;33.95;;;18.27;;
38240;SDS011;24037;49.536;8.500;2022-12-13T09:53:01;35.97;;;18.58;;
38240;SDS011;24037;49.536;8.500;2022-12-13T09:55:40;40.70;;;18.35;;
38240;SDS011;24037;49.536;8.500;2022-12-13T09:58:26;38.28;;;18.02;;
38240;SDS011;24037;49.536;8.500;2022-12-13T10:00:55;35.97;;;16.92;;
38240;SDS011;24037;49.536;8.500;2022-12-13T10:03:23;36.10;;;17.50;;
38240;SDS011;24037;49.536;8.500;2022-12-13T10:05:55;34.38;;;18.17;;
38240;SDS011;24037;49.536;8.500;2022-12-13T10:08:27;35.97;;;18.58;;
38240;SDS011;24037;49.536;8.500;2022-12-13T10:10:59;42.40;;;17.52;;
38240;SDS011;24037;49.536;8.500;2022-12-13T10:16:13;37.50;;;18.52;;
38240;SDS011;24037;49.536;8.500;2022-12-13T10:18:44;35.15;;;17.45;;
38240;SDS011;24037;49.536;8.500;2022-12-13T10:21:18;38.72;;;17.95;;
38240;SDS011;24037;49.536;8.500;2022-12-13T10:23:50;33.50;;;16.35;;
38240;SDS011;24037;49.536;8.500;2022-12-13T10:26:16;37.80;;;17.35;;
38240;SDS011;24037;49.536;8.500;2022-12-13T10:28:43;35.20;;;16.45;;
38240;SDS011;24037;49.536;8.500;2022-12-13T10:31:18;33.85;;;16.15;;
38240;SDS011;24037;49.536;8.500;2022-12-13T10:33:50;31.20;;;16.92;;
38240;SDS011;24037;49.536;8.500;2022-12-13T10:36:30;30.92;;;15.65;;
38240;SDS011;24037;49.536;8.500;2022-12-13T10:39:02;29.73;;;16.08;;
38240;SDS011;24037;49.536;8.500;2022-12-13T10:46:48;29.85;;;14.20;;
38240;SDS011;24037;49.536;8.500;2022-12-13T10:49:21;30.63;;;15.98;;
38240;SDS011;24037;49.536;8.500;2022-12-13T10:54:18;32.60;;;14.85;;
38240;SDS011;24037;49.536;8.500;2022-12-13T10:56:51;27.63;;;14.52;;
38240;SDS011;24037;49.536;8.500;2022-12-13T11:01:52;27.00;;;13.63;;
38240;SDS011;24037;49.536;8.500;2022-12-13T11:06:52;20.27;;;10.88;;
38240;SDS011;24037;49.536;8.500;2022-12-13T11:11:55;22.40;;;11.55;;
38240;SDS011;24037;49.536;8.500;2022-12-13T11:14:31;21.00;;;10.73;;
38240;SDS011;24037;49.536;8.500;2022-12-13T11:17:04;20.20;;;11.38;;
38240;SDS011;24037;49.536;8.500;2022-12-13T11:19:36;18.73;;;10.32;;
38240;SDS011;24037;49.536;8.500;2022-12-13T11:22:06;16.45;;;8.23;;
38240;SDS011;24037;49.536;8.500;2022-12-13T11:24:36;23.90;;;10.95;;
38240;SDS011;24037;49.536;8.500;2022-12-13T11:32:53;18.65;;;9.75;;
38240;SDS011;24037;49.536;8.500;2022-12-13T11:35:28;23.17;;;9.50;;
38240;SDS011;24037;49.536;8.500;2022-12-13T11:38:22;18.25;;;9.27;;
38240;SDS011;24037;49.536;8.500;2022-12-13T11:41:11;22.63;;;11.82;;
38240;SDS011;24037;49.536;8.500;2022-12-13T11:43:48;18.55;;;9.75;;
38240;SDS011;24037;49.536;8.500;2022-12-13T11:46:21;19.17;;;10.18;;
38240;SDS011;24037;49.536;8.500;2022-12-13T11:49:01;15.70;;;8.75;;
38240;SDS011;24037;49.536;8.500;2022-12-13T11:52:20;19.55;;;10.68;;
38240;SDS011;24037;49.536;8.500;2022-12-13T11:54:29;20.70;;;11.15;;
38240;SDS011;24037;49.536;8.500;2022-12-13T12:00:04;25.45;;;14.70;;
38240;SDS011;24037;49.536;8.500;2022-12-13T12:02:52;21.83;;;10.57;;
38240;SDS011;24037;49.536;8.500;2022-12-13T12:07:49;20.45;;;11.90;;
38240;SDS011;24037;49.536;8.500;2022-12-13T12:11:02;20.40;;;10.80;;
38240;SDS011;24037;49.536;8.500;2022-12-13T12:13:51;27.33;;;12.00;;
38240;SDS011;24037;49.536;8.500;2022-12-13T12:18:50;22.75;;;13.23;;
38240;SDS011;24037;49.536;8.500;2022-12-13T12:21:29;24.77;;;11.88;;
38240;SDS011;24037;49.536;8.500;2022-12-13T12:26:43;22.00;;;11.37;;
38240;SDS011;24037;49.536;8.500;2022-12-13T12:31:54;25.38;;;13.20;;
38240;SDS011;24037;49.536;8.500;2022-12-13T12:37:52;22.30;;;13.00;;
38240;SDS011;24037;49.536;8.500;2022-12-13T12:43:21;23.50;;;12.40;;
38240;SDS011;24037;49.536;8.500;2022-12-13T12:54:53;26.25;;;13.68;;
38240;SDS011;24037;49.536;8.500;2022-12-13T12:57:50;28.67;;;14.05;;
38240;SDS011;24037;49.536;8.500;2022-12-13T13:00:35;24.35;;;12.88;;
38240;SDS011;24037;49.536;8.500;2022-12-13T13:05:45;27.45;;;13.05;;
38240;SDS011;24037;49.536;8.500;2022-12-13T13:10:53;23.38;;;14.07;;
38240;SDS011;24037;49.536;8.500;2022-12-13T13:16:27;25.95;;;15.20;;
38240;SDS011;24037;49.536;8.500;2022-12-13T13:18:54;24.80;;;12.52;;
38240;SDS011;24037;49.536;8.500;2022-12-13T13:21:31;21.80;;;11.80;;
38240;SDS011;24037;49.536;8.500;2022-12-13T13:26:37;21.95;;;12.23;;
38240;SDS011;24037;49.536;8.500;2022-12-13T13:34:37;26.00;;;13.23;;
38240;SDS011;24037;49.536;8.500;2022-12-13T13:42:26;23.50;;;12.15;;
38240;SDS011;24037;49.536;8.500;2022-12-13T13:47:51;27.27;;;13.55;;
38240;SDS011;24037;49.536;8.500;2022-12-13T13:54:35;23.83;;;12.65;;
38240;SDS011;24037;49.536;8.500;2022-12-13T14:08:19;23.63;;;13.23;;
38240;SDS011;24037;49.536;8.500;2022-12-13T14:28:23;28.38;;;13.98;;
38240;SDS011;24037;49.536;8.500;2022-12-13T14:31:37;32.65;;;16.40;;
38240;SDS011;24037;49.536;8.500;2022-12-13T14:34:07;27.70;;;13.57;;
38240;SDS011;24037;49.536;8.500;2022-12-13T14:37:15;29.00;;;16.05;;
38240;SDS011;24037;49.536;8.500;2022-12-13T14:39:47;29.17;;;13.63;;
38240;SDS011;24037;49.536;8.500;2022-12-13T14:42:23;31.70;;;15.48;;
38240;SDS011;24037;49.536;8.500;2022-12-13T14:44:53;32.20;;;15.73;;
38240;SDS011;24037;49.536;8.500;2022-12-13T14:47:20;31.13;;;17.45;;
38240;SDS011;24037;49.536;8.500;2022-12-13T14:49:49;30.95;;;16.42;;
38240;SDS011;24037;49.536;8.500;2022-12-13T14:52:24;29.42;;;15.43;;
38240;SDS011;24037;49.536;8.500;2022-12-13T14:54:57;26.02;;;13.82;;
38240;SDS011;24037;49.536;8.500;2022-12-13T14:57:26;32.55;;;15.02;;
38240;SDS011;24037;49.536;8.500;2022-12-13T14:59:54;34.80;;;18.52;;
38240;SDS011;24037;49.536;8.500;2022-12-13T15:02:23;27.65;;;15.35;;
38240;SDS011;24037;49.536;8.500;2022-12-13T15:04:52;29.63;;;16.70;;
38240;SDS011;24037;49.536;8.500;2022-12-13T15:09:56;30.80;;;13.93;;
38240;SDS011;24037;49.536;8.500;2022-12-13T15:12:25;34.92;;;15.50;;
38240;SDS011;24037;49.536;8.500;2022-12-13T15:15:01;31.73;;;16.23;;
38240;SDS011;24037;49.536;8.500;2022-12-13T15:17:31;35.92;;;16.60;;
38240;SDS011;24037;49.536;8.500;2022-12-13T15:22:57;41.25;;;19.15;;
38240;SDS011;24037;49.536;8.500;2022-12-13T15:25:25;34.97;;;17.60;;
38240;SDS011;24037;49.536;8.500;2022-12-13T15:27:52;29.65;;;15.07;;
38240;SDS011;24037;49.536;8.500;2022-12-13T15:30:20;27.00;;;14.13;;
38240;SDS011;24037;49.536;8.500;2022-12-13T15:35:33;30.85;;;14.73;;
38240;SDS011;24037;49.536;8.500;2022-12-13T15:38:05;24.02;;;12.20;;
38240;SDS011;24037;49.536;8.500;2022-12-13T15:40:43;26.77;;;14.25;;
38240;SDS011;24037;49.536;8.500;2022-12-13T15:43:15;28.75;;;14.23;;
38240;SDS011;24037;49.536;8.500;2022-12-13T15:45:45;28.05;;;13.93;;
38240;SDS011;24037;49.536;8.500;2022-12-13T15:48:16;27.15;;;14.55;;
38240;SDS011;24037;49.536;8.500;2022-12-13T15:50:49;30.70;;;15.57;;
38240;SDS011;24037;49.536;8.500;2022-12-13T15:54:03;27.90;;;15.10;;
38240;SDS011;24037;49.536;8.500;2022-12-13T15:59:40;28.38;;;14.93;;
38240;SDS011;24037;49.536;8.500;2022-12-13T16:02:17;37.22;;;16.15;;
38240;SDS011;24037;49.536;8.500;2022-12-13T16:04:47;38.83;;;19.75;;
38240;SDS011;24037;49.536;8.500;2022-12-13T16:07:21;40.30;;;18.83;;
38240;SDS011;24037;49.536;8.500;2022-12-13T16:10:06;41.13;;;20.83;;
38240;SDS011;24037;49.536;8.500;2022-12-13T16:12:43;38.13;;;21.05;;
38240;SDS011;24037;49.536;8.500;2022-12-13T16:15:22;31.15;;;14.57;;
38240;SDS011;24037;49.536;8.500;2022-12-13T16:17:53;35.20;;;15.85;;
38240;SDS011;24037;49.536;8.500;2022-12-13T16:20:28;27.88;;;15.77;;
38240;SDS011;24037;49.536;8.500;2022-12-13T16:22:55;47.55;;;22.27;;
38240;SDS011;24037;49.536;8.500;2022-12-13T16:25:21;32.75;;;15.20;;
38240;SDS011;24037;49.536;8.500;2022-12-13T16:27:48;37.25;;;15.55;;
38240;SDS011;24037;49.536;8.500;2022-12-13T16:30:25;33.00;;;16.17;;
38240;SDS011;24037;49.536;8.500;2022-12-13T16:32:53;37.05;;;19.92;;
38240;SDS011;24037;49.536;8.500;2022-12-13T16:35:19;43.20;;;20.58;;
38240;SDS011;24037;49.536;8.500;2022-12-13T16:37:46;39.65;;;21.83;;
38240;SDS011;24037;49.536;8.500;2022-12-13T16:42:48;39.17;;;20.27;;
38240;SDS011;24037;49.536;8.500;2022-12-13T16:45:14;45.85;;;20.73;;
38240;SDS011;24037;49.536;8.500;2022-12-13T16:47:40;35.40;;;17.65;;
38240;SDS011;24037;49.536;8.500;2022-12-13T16:50:13;35.72;;;18.52;;
38240;SDS011;24037;49.536;8.500;2022-12-13T16:52:41;29.83;;;14.00;;
38240;SDS011;24037;49.536;8.500;2022-12-13T16:55:08;25.20;;;14.45;;
38240;SDS011;24037;49.536;8.500;2022-12-13T16:57:34;32.08;;;15.63;;
38240;SDS011;24037;49.536;8.500;2022-12-13T17:00:01;42.40;;;21.83;;
38240;SDS011;24037;49.536;8.500;2022-12-13T17:02:27;33.88;;;16.02;;